Latest Weather Observations for Wangaratta

IDV60801

Issued at 7:52 pm EDT Thursday 17 October 2019 (issued every 10 minutes, with the page automatically refreshed every 10 minutes)

About weather observations | Map of weather stations | Latest weather observations for VIC | Other Formats
Station Details ID: 082138 Name: WANGARATTA AERO Lat: -36.42 Lon: 146.31 Height: 152.6 m
Data from the previous 72 hours. | See also: Recent months at Wangaratta
Date/Time
EDT
Temp
°C
App
Temp
°C
Dew
Point
°C
Rel
Hum
%
Delta-T
°C
Wind Press
QNH
hPa
Press
MSL
hPa
Rain since
9am
mm
Dir  Spd
km/h
Gust
km/h
Spd
kts
Gust
kts
17/07:30pm 10.4 7.0 5.8 73 2.1 WSW 13 17 7 9 1014.3 1014.2 0.6
17/07:00pm 11.9 7.7 5.5 65 3.0 W 17 26 9 14 1013.9 1013.8 0.6
17/06:30pm 12.2 6.5 5.1 62 3.3 W 24 37 13 20 1013.5 1013.4 0.6
17/06:00pm 12.8 7.7 6.2 64 3.2 WSW 22 32 12 17 1013.1 1013.0 0.6
17/05:30pm 12.5 7.9 5.4 62 3.3 WSW 19 28 10 15 1012.8 1012.7 0.6
17/05:00pm 12.5 7.2 7.0 69 2.7 WSW 24 39 13 21 1012.2 1012.1 0.6
17/04:30pm 10.2 2.7 6.5 78 1.7 W 35 63 19 34 1012.5 1012.4 0.4
17/04:29pm 10.5 3.0 6.1 74 2.1 W 35 63 19 34 1012.4 1012.3 0.2
17/04:00pm 16.0 7.2 1.3 37 6.5 WNW 37 56 20 30 1010.8 1010.7 0.0
17/03:33pm 15.7 7.9 -0.5 33 6.9 W 30 48 16 26 1010.8 1010.7 0.0
17/03:30pm 16.3 8.2 0.0 33 7.0 W 32 48 17 26 1010.8 1010.7 0.0
17/03:00pm 16.7 8.4 -0.5 31 7.4 WNW 33 48 18 26 1011.0 1010.9 0.0
17/02:37pm 16.0 7.3 -0.2 33 6.9 WNW 35 56 19 30 1011.1 1011.0 0.0
17/02:30pm 16.0 7.9 1.0 36 6.6 W 33 46 18 25 1011.2 1011.1 0.0
17/02:06pm 16.2 7.7 1.1 36 6.7 WNW 35 57 19 31 1011.4 1011.3 0.0
17/02:00pm 14.7 6.3 1.6 41 5.8 W 35 52 19 28 1011.4 1011.3 0.0
17/01:39pm 15.8 8.3 3.3 43 5.7 W 32 50 17 27 1011.3 1011.2 0.0
17/01:30pm 15.4 7.9 3.2 44 5.6 W 32 48 17 26 1011.3 1011.2 0.0
17/01:26pm 15.0 7.8 2.9 44 5.5 W 30 48 16 26 1011.3 1011.2 0.0
17/01:00pm 14.9 9.0 3.7 47 5.2 W 24 35 13 19 1011.4 1011.3 0.0
17/12:30pm 14.0 7.3 3.5 49 4.8 WNW 28 43 15 23 1011.4 1011.3 0.0
17/12:02pm 13.5 6.2 4.6 55 4.1 WNW 32 50 17 27 1011.4 1011.3 0.0
17/12:00pm 13.0 5.5 4.4 56 4.0 WNW 33 50 18 27 1011.5 1011.5 0.0
17/11:57am 12.9 5.5 4.1 55 4.0 W 32 50 17 27 1011.5 1011.5 0.0
17/11:30am 13.3 5.7 3.9 53 4.3 W 33 46 18 25 1011.5 1011.5 0.0
17/11:00am 12.1 5.6 4.8 61 3.4 W 28 39 15 21 1011.5 1011.5 0.0
17/10:30am 11.6 5.6 5.5 66 2.8 W 26 41 14 22 1011.8 1011.7 0.0
17/10:00am 11.3 4.8 4.7 64 3.0 WNW 28 50 15 27 1011.5 1011.5 0.0
17/09:59am 11.5 5.0 4.9 64 3.0 WNW 28 50 15 27 1011.5 1011.5 0.0
17/09:30am 10.4 4.6 6.2 75 2.0 WNW 26 37 14 20 1011.4 1011.3 0.0
17/09:00am 10.6 4.5 6.6 76 1.9 NW 28 41 15 22 1010.9 1010.8 1.6
17/08:30am 10.1 4.8 6.6 79 1.7 WNW 24 35 13 19 1010.8 1010.7 1.6
17/08:00am 9.4 6.2 6.8 84 1.2 WNW 13 22 7 12 1010.5 1010.4 1.6
17/07:30am 9.1 4.7 6.4 83 1.3 W 19 28 10 15 1010.3 1010.2 1.6
17/07:00am 9.0 5.7 6.4 84 1.2 WNW 13 17 7 9 1009.9 1009.8 1.6
17/06:30am 9.2 5.2 6.5 83 1.3 WNW 17 28 9 15 1009.6 1009.5 1.6
17/06:00am 9.9 7.0 6.6 80 1.6 NW 11 17 6 9 1009.3 1009.2 1.6
17/05:30am 10.9 8.1 6.8 76 2.0 NNW 11 17 6 9 1008.9 1008.8 1.6
17/05:00am 11.6 9.1 8.1 79 1.7 N 11 17 6 9 1008.5 1008.4 1.6
17/04:30am 11.7 9.6 9.9 89 0.9 N 11 17 6 9 1008.6 1008.5 1.6
17/04:00am 12.0 10.7 11.1 94 0.5 N 9 11 5 6 1008.6 1008.5 1.6
17/03:30am 12.2 10.2 11.6 96 0.3 NNW 13 20 7 11 1008.8 1008.7 1.6
17/03:13am 12.1 10.7 12.1 100 0.0 NNW 11 15 6 8 1009.1 1009.0 1.6
17/03:00am 12.1 10.7 12.1 100 0.0 N 11 15 6 8 1009.2 1009.1 1.4
17/02:38am 12.3 10.6 12.3 100 0.0 NNE 13 15 7 8 1009.2 1009.1 1.4
17/02:30am 12.2 11.2 12.2 100 0.0 NNE 9 13 5 7 1009.3 1009.2 1.4
17/02:00am 12.1 11.6 12.1 100 0.0 N 6 9 3 5 1009.8 1009.7 1.2
17/01:43am 12.1 11.4 12.1 100 0.0 NE 7 9 4 5 1009.8 1009.7 1.0
17/01:30am 12.0 11.3 12.0 100 0.0 NE 7 9 4 5 1010.0 1009.9 1.0
17/01:00am 11.7 12.2 11.7 100 0.0 CALM 0 0 0 0 1010.4 1010.3 1.0
17/12:59am 11.6 12.1 11.6 100 0.0 CALM 0 0 0 0 1010.4 1010.3 1.0
17/12:30am 11.9 10.8 11.9 100 0.0 NE 9 13 5 7 1010.5 1010.4 1.0
17/12:09am 11.2 9.9 11.2 100 0.0 WSW 9 11 5 6 1010.8 1010.7 1.0
17/12:00am 10.7 9.2 10.7 100 0.0 SW 9 13 5 7 1010.7 1010.6 1.0
 
Date/Time
EDT
Temp
°C
App
Temp
°C
Dew
Point
°C
Rel
Hum
%
Delta-T
°C
Wind Press
QNH
hPa
Press
MSL
hPa
Rain since
9am
mm
Dir  Spd
km/h
Gust
km/h
Spd
kts
Gust
kts
16/11:45pm 10.2 9.0 10.2 100 0.0 NNW 7 7 4 4 1010.4 1010.3 1.0
16/11:30pm 9.9 8.6 9.9 100 0.0 N 7 7 4 4 1010.4 1010.3 1.0
16/11:00pm 9.9 8.6 9.9 100 0.0 NNE 7 7 4 4 1010.3 1010.2 1.0
16/10:47pm 9.6 9.2 9.6 100 0.0 NE 2 7 1 4 1010.2 1010.1 1.0
16/10:30pm 7.7 7.1 7.6 99 0.0 CALM 0 0 0 0 1010.4 1010.3 1.0
16/10:00pm 10.4 10.1 10.2 99 0.1 N 2 6 1 3 1010.3 1010.2 1.0
16/09:39pm 11.4 10.5 11.4 100 0.0 N 7 9 4 5 1010.4 1010.3 1.0
16/09:30pm 11.9 11.2 11.9 100 0.0 N 7 9 4 5 1010.4 1010.3 1.0
16/09:00pm 12.2 11.1 12.0 99 0.1 N 9 11 5 6 1010.5 1010.4 1.0
16/08:30pm 12.5 11.4 11.9 96 0.3 NNW 9 11 5 6 1010.4 1010.3 1.0
16/08:00pm 13.3 12.5 11.7 90 0.9 N 7 9 4 5 1009.9 1009.8 1.0
16/07:30pm 14.4 13.7 11.9 85 1.4 N 7 9 4 5 1009.8 1009.7 1.0
16/07:00pm 15.3 14.6 11.5 78 2.1 N 6 7 3 4 1009.5 1009.4 1.0
16/06:30pm 15.8 15.3 12.5 81 1.8 NNE 7 9 4 5 1009.3 1009.2 1.0
16/06:00pm 15.3 14.3 12.2 82 1.7 NE 9 11 5 6 1009.2 1009.1 1.0
16/05:30pm 15.8 14.7 11.8 77 2.2 NNE 9 11 5 6 1009.8 1009.7 1.0
16/05:00pm 15.5 14.8 11.3 76 2.3 NE 6 7 3 4 1009.9 1009.8 1.0
16/04:30pm 15.8 15.8 9.9 68 3.1 CALM 0 0 0 0 1010.2 1010.1 0.8
16/04:00pm 16.2 16.0 10.3 68 3.1 S 2 7 1 4 1009.9 1009.8 0.8
16/03:30pm 15.7 13.5 10.7 72 2.7 SW 13 17 7 9 1010.2 1010.1 0.8
16/03:00pm 15.9 14.8 11.9 77 2.2 SW 9 11 5 6 1010.3 1010.2 0.8
16/02:30pm 14.9 13.7 11.5 80 1.8 WNW 9 13 5 7 1011.5 1011.5 0.6
16/02:00pm 15.4 13.2 10.8 74 2.5 WSW 13 19 7 10 1011.1 1011.0 0.4
16/01:30pm 15.9 12.6 11.5 75 2.4 SW 20 30 11 16 1010.8 1010.7 0.2
16/01:00pm 17.3 13.4 9.5 60 4.1 SW 20 28 11 15 1011.3 1011.2 0.2
16/12:30pm 18.1 14.8 9.5 57 4.6 SW 17 24 9 13 1010.8 1010.7 0.0
16/12:00pm 18.1 16.4 11.2 64 3.8 S 11 13 6 7 1010.8 1010.7 0.0
16/11:30am 18.4 16.9 10.5 60 4.3 S 9 11 5 6 1010.7 1010.6 0.0
16/11:00am 17.6 16.7 11.2 66 3.5 S 7 11 4 6 1011.0 1010.9 0.0
16/10:30am 17.4 15.6 12.1 71 2.9 S 13 17 7 9 1011.0 1010.9 0.0
16/10:00am 16.8 15.2 11.5 71 2.9 S 11 13 6 7 1011.5 1011.5 0.0
16/09:30am 16.5 15.3 11.6 73 2.7 SSW 9 11 5 6 1011.4 1011.3 0.0
16/09:00am 15.7 15.0 11.5 76 2.3 SSW 6 7 3 4 1011.0 1010.9 0.2
16/08:30am 13.7 13.6 12.1 90 0.9 SSW 4 7 2 4 1011.3 1011.2 0.2
16/08:00am 12.7 12.2 12.1 96 0.3 W 6 9 3 5 1011.4 1011.3 0.2
16/07:30am 12.4 12.1 11.5 94 0.5 ENE 4 11 2 6 1010.3 1010.2 0.2
16/07:00am 11.9 12.3 11.4 97 0.3 CALM 0 0 0 0 1011.2 1011.1 0.2
16/06:30am 12.0 10.3 11.1 94 0.5 S 11 13 6 7 1010.9 1010.8 0.2
16/06:00am 11.9 10.2 11.1 95 0.4 WSW 11 13 6 7 1011.7 1011.6 0.0
16/05:30am 12.3 11.0 9.9 85 1.2 NNW 7 9 4 5 1010.8 1010.7 0.0
16/05:00am 13.0 11.6 9.4 79 1.8 SE 7 9 4 5 1010.2 1010.1 0.0
16/04:30am 13.1 10.9 9.4 78 1.9 SSE 11 13 6 7 1010.5 1010.4 0.0
16/04:00am 12.7 11.3 9.5 81 1.6 ESE 7 9 4 5 1011.0 1010.9 0.0
16/03:30am 13.1 13.0 9.5 79 1.8 CALM 0 0 0 0 1011.3 1011.2 0.0
16/03:00am 12.1 10.8 10.0 87 1.1 WSW 7 9 4 5 1011.2 1011.1 0.0
16/02:30am 12.7 11.3 9.0 78 1.9 SSW 6 7 3 4 1011.2 1011.1 0.0
16/02:00am 13.0 11.7 10.0 82 1.6 SSE 7 9 4 5 1011.1 1011.0 0.0
16/01:30am 12.4 11.1 9.2 81 1.6 S 6 9 3 5 1011.4 1011.3 0.0
16/01:00am 13.8 12.2 8.8 72 2.5 SSW 7 9 4 5 1011.2 1011.1 0.0
16/12:30am 14.5 12.6 8.9 69 2.9 SW 9 9 5 5 1011.5 1011.5 0.0
16/12:00am 15.0 13.2 9.4 69 2.9 SSW 9 11 5 6 1011.5 1011.5 0.0
 
Date/Time
EDT
Temp
°C
App
Temp
°C
Dew
Point
°C
Rel
Hum
%
Delta-T
°C
Wind Press
QNH
hPa
Press
MSL
hPa
Rain since
9am
mm
Dir  Spd
km/h
Gust
km/h
Spd
kts
Gust
kts
15/11:30pm 14.3 12.6 8.5 68 2.9 SSW 7 7 4 4 1011.7 1011.6 0.0
15/11:00pm 13.9 11.7 7.7 66 3.1 WSW 9 9 5 5 1011.8 1011.7 0.0
15/10:30pm 14.5 12.6 8.9 69 2.9 SW 9 11 5 6 1011.8 1011.7 0.0
15/10:00pm 16.9 14.9 6.1 49 5.3 SW 6 7 3 4 1011.7 1011.6 0.0
15/09:30pm 17.7 16.7 7.4 51 5.2 SSW 2 7 1 4 1012.0 1011.9 0.0
15/09:00pm 18.6 17.3 6.1 44 6.2 SE 2 6 1 3 1011.7 1011.6 0.0
15/08:30pm 18.1 15.7 6.9 48 5.6 SSW 9 9 5 5 1011.3 1011.2 0.0
15/08:00pm 18.8 15.5 6.3 44 6.3 WSW 13 20 7 11 1010.8 1010.7 0.0
15/07:30pm 19.5 15.3 7.6 46 6.1 WSW 19 26 10 14 1010.5 1010.4 0.0
15/07:00pm 20.7 15.6 4.3 34 8.0 W 20 28 11 15 1010.2 1010.1 0.0
15/06:30pm 21.3 15.8 4.0 32 8.4 W 22 33 12 18 1009.8 1009.7 0.0
15/06:00pm 22.3 16.4 3.9 30 9.0 W 24 33 13 18 1009.5 1009.4 0.0
15/05:30pm 24.0 19.4 5.4 30 9.5 W 19 30 10 16 1009.2 1009.1 0.0
15/05:00pm 24.4 19.3 6.2 31 9.4 WSW 22 32 12 17 1008.9 1008.8 0.0
15/04:30pm 25.9 21.6 7.0 30 10.0 WSW 19 30 10 16 1009.0 1008.9 0.0
15/04:00pm 26.1 22.1 8.1 32 9.7 W 19 28 10 15 1009.0 1008.9 0.0
15/03:30pm 26.0 22.1 8.5 33 9.5 W 19 30 10 16 1009.2 1009.1 0.0
15/03:00pm 26.0 22.9 8.9 34 9.4 WSW 15 24 8 13 1009.4 1009.3 0.0
15/02:30pm 25.3 21.5 7.4 32 9.5 WSW 17 26 9 14 1009.7 1009.6 0.0
15/02:00pm 25.6 22.3 8.1 33 9.4 W 15 22 8 12 1010.1 1010.0 0.0
15/01:30pm 25.1 22.9 9.4 37 8.6 SW 11 20 6 11 1010.2 1010.1 0.0
15/01:00pm 24.4 21.3 8.8 37 8.5 W 15 26 8 14 1010.4 1010.3 0.0
15/12:30pm 23.4 21.8 8.7 39 7.9 SSW 7 11 4 6 1010.5 1010.4 0.0
15/12:00pm 23.6 22.5 9.9 42 7.5 W 6 13 3 7 1010.6 1010.5 0.0
15/11:30am 22.5 20.8 7.5 38 7.9 ENE 6 11 3 6 1010.9 1010.8 0.0
15/11:00am 21.1 20.1 8.7 45 6.6 SSW 4 9 2 5 1011.1 1011.0 0.0
15/10:30am 19.4 18.0 9.6 53 5.2 SSW 7 11 4 6 1011.7 1011.6 0.0
15/10:00am 18.0 16.5 9.1 56 4.7 S 7 9 4 5 1011.7 1011.6 0.0
15/09:30am 16.5 15.3 9.4 63 3.7 SSW 6 7 3 4 1011.7 1011.6 0.0
15/09:00am 15.1 13.5 8.6 65 3.3 SSE 7 9 4 5 1011.4 1011.3 0.0
15/08:30am 13.5 12.1 9.4 76 2.1 S 7 9 4 5 1011.5 1011.5 0.0
15/08:00am 10.7 10.7 9.9 95 0.4 CALM 0 0 0 0 1011.4 1011.3 0.0
15/07:30am 7.7 7.1 7.3 97 0.2 CALM 0 4 0 2 1011.2 1011.1 0.0
15/07:00am 6.4 4.4 6.3 99 0.0 SSE 6 7 3 4 1011.1 1011.0 0.0
15/06:30am 6.3 4.1 6.2 99 0.0 SSW 7 11 4 6 1010.9 1010.8 0.0
15/06:00am 6.4 4.2 6.3 99 0.0 SSW 7 9 4 5 1010.6 1010.5 0.0
15/05:30am 6.3 4.1 6.2 99 0.0 S 7 9 4 5 1010.5 1010.4 0.0
15/05:00am 7.9 7.3 7.6 98 0.1 CALM 0 4 0 2 1010.5 1010.4 0.0
15/04:30am 6.9 5.5 5.7 92 0.5 S 2 7 1 4 1010.5 1010.4 0.0
15/04:00am 9.4 7.2 7.7 89 0.8 SSE 9 15 5 8 1010.8 1010.7 0.0
15/03:30am 8.4 6.1 7.5 94 0.4 WSW 9 11 5 6 1011.0 1010.9 0.0
15/03:00am 8.8 6.7 8.4 97 0.2 SSW 9 11 5 6 1010.9 1010.8 0.0
15/02:30am 8.3 6.0 7.5 95 0.4 SW 9 9 5 5 1011.1 1011.0 0.0
15/02:00am 9.0 7.1 7.6 91 0.7 SSW 7 9 4 5 1011.1 1011.0 0.0
15/01:30am 9.2 7.0 8.0 92 0.6 SSW 9 9 5 5 1011.3 1011.2 0.0
15/01:00am 9.1 6.9 7.7 91 0.7 SSW 9 11 5 6 1011.5 1011.5 0.0
15/12:30am 9.6 7.8 8.0 90 0.8 SSW 7 9 4 5 1011.4 1011.3 0.0
15/12:00am 10.4 8.7 8.5 88 0.9 SSW 7 9 4 5 1011.4 1011.3 0.0
 
Date/Time
EDT
Temp
°C
App
Temp
°C
Dew
Point
°C
Rel
Hum
%
Delta-T
°C
Wind Press
QNH
hPa
Press
MSL
hPa
Rain since
9am
mm
Dir  Spd
km/h
Gust
km/h
Spd
kts
Gust
kts
14/11:30pm 10.8 8.7 8.4 85 1.2 SSW 9 11 5 6 1011.4 1011.3 0.0
14/11:00pm 11.8 10.3 9.2 84 1.3 SSW 7 9 4 5 1011.5 1011.5 0.0
14/10:30pm 11.2 9.3 8.9 86 1.2 SSW 9 11 5 6 1011.5 1011.5 0.0
14/10:00pm 12.1 10.4 9.7 85 1.2 SW 9 9 5 5 1011.4 1011.3 0.0
14/09:30pm 11.3 9.4 9.0 86 1.2 SSW 9 9 5 5 1011.4 1011.3 0.0
14/09:00pm 12.5 10.9 8.8 78 1.9 SSW 7 9 4 5 1011.2 1011.1 0.0
14/08:30pm 16.3 14.6 8.3 59 4.1 SSE 7 9 4 5 1011.0 1010.9 0.0
14/08:00pm 18.2 16.2 8.7 54 5.0 SE 9 11 5 6 1010.8 1010.7 0.0

Other formats

Comma delimited format used in spreadsheet applications
http://www.bom.gov.au/fwo/IDV60801/IDV60801.94889.axf

JavaScript Object Notation format (JSON) in row-major order
http://www.bom.gov.au/fwo/IDV60801/IDV60801.94889.json

Data quality

Most of these data are generated automatically and are frequently updated. Quality checks on data are not normally performed. It is possible for incorrect values to appear. Refer to information at About Latest Weather Observations and please check the disclaimer before using these data.